Terminal Aerodrome Forecast
Issued by NWS

Home | Current Version | Previous Version | Text Only | Print | Product List | Glossary On
Versions: 1 2 3 4 5 6 7 8 9 10 11 12 13 14 15 16 17 18 19 20 21 22 23 24 25
000
FTUS42 KJAX 030537
TAFCRG
TAF
KCRG 030537Z 0306/0406 21004KT P6SM VCSH SCT040 OVC120
      TEMPO 0306/0308 -SHRA
     FM030800 00000KT P6SM FEW030 SCT120 OVC250
     FM031400 23004KT P6SM SCT030 BKN250
     FM031700 11008KT P6SM VCTS SCT030CB BKN050=

USA.gov is the U.S. government's official web portal to all federal, state and local government web resources and services.